Time;durP1;ratioP1;P1;durP2;ratioP2;P2;SDS_P1;SDS_P2;PMS_P1;PMS_P2;Temp;Humidity;BMP_temperature;BMP_pressure;BME280_temperature;BME280_humidity;BME280_pressure;Samples;Min_cycle;Max_cycle;Signal;HPM_P1;HPM_P2
2023/12/18 00:02:30;;;;;;;6.32;2.80;;;6.00;99.90;;;5.70;100.00;102772.66;5182010;28;20042;-48
2023/12/18 00:05:02;;;;;;;7.30;3.22;;;5.90;99.90;;;5.64;100.00;102774.72;5179380;28;20119;-47
2023/12/18 00:07:36;;;;;;;6.82;3.45;;;5.80;99.90;;;5.58;100.00;102774.19;5199098;28;20057;-49
2023/12/18 00:10:09;;;;;;;6.30;2.95;;;5.70;99.90;;;5.53;100.00;102771.97;5201198;28;20049;-49
2023/12/18 00:12:42;;;;;;;6.70;3.00;;;5.70;99.90;;;5.46;100.00;102775.69;5200295;28;20768;-47
2023/12/18 00:15:14;;;;;;;6.55;2.47;;;5.70;99.90;;;5.42;100.00;102768.47;5181380;28;20064;-48
2023/12/18 00:17:46;;;;;;;8.77;3.50;;;5.60;99.90;;;5.39;100.00;102778.53;5192849;28;20053;-48
2023/12/18 00:20:19;;;;;;;8.82;4.00;;;5.60;99.90;;;5.36;100.00;102786.03;5211436;28;20508;-49
2023/12/18 00:22:53;;;;;;;9.20;3.78;;;5.50;99.90;;;5.27;100.00;102785.22;5212062;28;20056;-48
2023/12/18 00:25:25;;;;;;;7.78;3.25;;;5.50;99.90;;;5.17;100.00;102784.41;5178646;28;20060;-48
2023/12/18 00:27:58;;;;;;;7.38;3.22;;;5.40;99.90;;;5.10;100.00;102778.59;5198144;28;20060;-47
2023/12/18 00:30:30;;;;;;;7.72;2.92;;;5.30;99.90;;;5.05;100.00;102775.59;5183759;28;20046;-48
2023/12/18 00:33:03;;;;;;;7.15;2.83;;;5.30;99.90;;;5.00;100.00;102774.25;5180835;28;20057;-49
2023/12/18 00:35:35;;;;;;;10.82;3.05;;;5.20;99.90;;;4.94;100.00;102776.28;5195240;28;20065;-47
2023/12/18 00:38:12;;;;;;;7.25;3.00;;;5.10;99.90;;;4.88;100.00;102771.50;5177850;28;20651;-48
2023/12/18 00:40:44;;;;;;;7.38;2.95;;;5.10;99.90;;;4.84;100.00;102774.59;5200664;28;20048;-47
2023/12/18 00:43:17;;;;;;;5.72;3.05;;;5.00;99.90;;;4.80;100.00;102776.75;5198302;28;20051;-49
2023/12/18 00:45:49;;;;;;;6.35;3.05;;;5.00;99.90;;;4.75;100.00;102768.59;5199679;28;20111;-47
2023/12/18 00:48:22;;;;;;;8.05;3.20;;;4.90;99.90;;;4.76;100.00;102770.44;5182463;28;20069;-48
2023/12/18 00:50:54;;;;;;;7.15;3.35;;;4.90;99.90;;;4.79;100.00;102767.19;5180493;28;20144;-48
2023/12/18 00:53:28;;;;;;;9.52;3.92;;;5.00;99.90;;;4.76;100.00;102769.47;5182214;28;20056;-48
2023/12/18 00:56:00;;;;;;;7.88;3.15;;;4.90;99.90;;;4.74;100.00;102763.28;5181272;28;20050;-48
2023/12/18 00:58:32;;;;;;;6.15;2.83;;;4.90;99.90;;;4.73;100.00;102769.22;5181177;28;20080;-47
2023/12/18 01:01:05;;;;;;;5.05;2.70;;;4.90;99.90;;;4.69;100.00;102757.69;5181161;28;20053;-47
2023/12/18 01:03:38;;;;;;;6.13;2.40;;;4.90;99.90;;;4.66;100.00;102774.63;5198690;28;20413;-47
2023/12/18 01:06:10;;;;;;;6.57;2.65;;;4.80;99.90;;;4.60;100.00;102773.28;5179039;28;20149;-48
2023/12/18 01:08:44;;;;;;;6.78;2.40;;;4.80;99.90;;;4.53;100.00;102768.34;5199705;28;20057;-48
2023/12/18 01:11:15;;;;;;;6.63;2.63;;;4.80;99.90;;;4.47;100.00;102765.19;5175371;28;20046;-48
2023/12/18 01:13:48;;;;;;;5.70;2.75;;;4.70;99.90;;;4.44;100.00;102764.94;5177190;28;20038;-48
2023/12/18 01:16:20;;;;;;;5.45;2.55;;;4.70;99.90;;;4.40;100.00;102762.84;5213686;28;20245;-48
2023/12/18 01:18:53;;;;;;;4.50;2.63;;;4.60;99.90;;;4.36;100.00;102771.06;5180023;28;20053;-47
2023/12/18 01:21:25;;;;;;;5.15;2.40;;;4.60;99.90;;;4.31;100.00;102772.34;5179801;28;20057;-48
2023/12/18 01:23:59;;;;;;;5.57;3.13;;;4.50;99.90;;;4.26;100.00;102773.59;5189597;28;20053;-47
2023/12/18 01:26:31;;;;;;;6.03;2.90;;;4.50;99.90;;;4.25;100.00;102776.94;5208954;28;20057;-47
2023/12/18 01:29:04;;;;;;;6.15;2.85;;;4.50;99.90;;;4.25;100.00;102772.69;5192853;28;20060;-48
2023/12/18 01:31:36;;;;;;;7.32;2.97;;;4.40;99.90;;;4.25;100.00;102783.00;5209730;28;20049;-48
2023/12/18 01:34:09;;;;;;;7.20;3.25;;;4.40;99.90;;;4.29;100.00;102773.84;5174280;28;20042;-48
2023/12/18 01:36:41;;;;;;;7.40;2.92;;;4.50;99.90;;;4.29;100.00;102768.69;5200199;28;20041;-46
2023/12/18 01:39:15;;;;;;;6.20;2.95;;;4.50;99.90;;;4.34;100.00;102772.59;5175325;28;20057;-47
2023/12/18 01:41:47;;;;;;;9.55;3.97;;;4.50;99.90;;;4.36;100.00;102766.81;5180553;28;20049;-47
2023/12/18 01:44:19;;;;;;;7.85;3.33;;;4.60;99.90;;;4.38;100.00;102774.72;5173549;28;20049;-48
2023/12/18 01:46:52;;;;;;;7.18;2.85;;;4.60;99.90;;;4.37;100.00;102760.00;5180436;28;20136;-48
2023/12/18 01:49:25;;;;;;;6.88;3.00;;;4.60;99.90;;;4.36;100.00;102769.38;5208384;28;20440;-47
2023/12/18 01:51:58;;;;;;;8.10;3.15;;;4.60;99.90;;;4.40;100.00;102772.25;5200189;28;20053;-49
2023/12/18 01:54:32;;;;;;;6.70;2.88;;;4.60;99.90;;;4.37;100.00;102767.75;5179303;28;20049;-47
2023/12/18 01:57:06;;;;;;;6.57;2.50;;;4.60;99.90;;;4.35;100.00;102774.41;5185421;28;20053;-48
2023/12/18 01:59:39;;;;;;;5.97;2.75;;;4.60;99.90;;;4.30;100.00;102765.34;5201846;28;20052;-47
2023/12/18 02:02:14;;;;;;;6.05;2.83;;;4.50;99.90;;;4.26;100.00;102778.75;5179124;28;20536;-47
2023/12/18 02:04:47;;;;;;;4.30;2.63;;;4.50;99.90;;;4.23;100.00;102773.28;5186136;28;20045;-48
2023/12/18 02:07:19;;;;;;;5.45;3.00;;;4.50;99.90;;;4.21;100.00;102767.09;5199890;28;20069;-47
2023/12/18 02:09:53;;;;;;;6.13;2.50;;;4.40;99.90;;;4.19;100.00;102766.06;5203295;28;20041;-47
2023/12/18 02:12:28;;;;;;;8.60;3.08;;;4.40;99.90;;;4.14;100.00;102762.13;5195494;28;20061;-48
2023/12/18 02:15:01;;;;;;;6.70;2.83;;;4.40;99.90;;;4.11;100.00;102767.00;5200642;28;20041;-46
2023/12/18 02:17:33;;;;;;;6.03;3.10;;;4.30;99.90;;;4.06;100.00;102764.94;5182992;28;20044;-48
2023/12/18 02:20:07;;;;;;;7.20;3.05;;;4.30;99.90;;;4.01;100.00;102770.44;5183261;28;20053;-46
2023/12/18 02:22:51;;;;;;;6.63;2.97;;;4.20;99.90;;;3.96;100.00;102766.50;5199297;28;20140;-48
2023/12/18 02:25:24;;;;;;;6.47;2.83;;;4.20;99.90;;;3.93;100.00;102771.41;5192857;28;20049;-48
2023/12/18 02:27:56;;;;;;;8.23;3.08;;;4.20;99.90;;;3.86;100.00;102769.91;5195456;28;20053;-47
2023/12/18 02:30:34;;;;;;;7.43;3.20;;;4.10;99.90;;;3.82;100.00;102767.81;5200579;28;20069;-48
2023/12/18 02:33:06;;;;;;;6.97;2.83;;;4.10;99.90;;;3.80;100.00;102775.41;5204296;28;20056;-47
2023/12/18 02:35:39;;;;;;;6.43;3.08;;;4.10;99.90;;;3.77;100.00;102779.38;5202083;28;20041;-48
2023/12/18 02:38:12;;;;;;;5.80;3.20;;;4.00;99.90;;;3.74;100.00;102784.25;5181749;28;20145;-47
2023/12/18 02:40:45;;;;;;;7.25;3.15;;;4.00;99.90;;;3.71;100.00;102781.38;5202394;28;20045;-47
2023/12/18 02:43:17;;;;;;;5.38;2.65;;;4.00;99.90;;;3.67;100.00;102774.13;5181883;28;20060;-47
2023/12/18 02:45:49;;;;;;;5.75;2.80;;;3.90;99.90;;;3.61;100.00;102771.88;5183468;28;20049;-47
2023/12/18 02:48:25;;;;;;;6.75;2.70;;;3.90;99.90;;;3.59;100.00;102775.09;5217254;28;20068;-47
2023/12/18 02:50:57;;;;;;;5.72;3.22;;;3.90;99.90;;;3.53;100.00;102778.91;5183812;28;20042;-48
2023/12/18 02:53:31;;;;;;;6.93;2.78;;;3.80;99.90;;;3.51;100.00;102775.25;5216771;28;20461;-48
2023/12/18 02:56:04;;;;;;;6.53;2.92;;;3.80;99.90;;;3.50;100.00;102773.44;5183009;28;20132;-47
2023/12/18 02:58:36;;;;;;;8.13;3.03;;;3.70;99.90;;;3.53;100.00;102767.69;5198669;28;20061;-49
2023/12/18 03:01:09;;;;;;;9.18;3.30;;;3.80;99.90;;;3.53;100.00;102767.69;5193872;28;20050;-48
2023/12/18 03:03:41;;;;;;;7.10;3.20;;;3.80;99.90;;;3.50;100.00;102767.38;5185718;28;20061;-48
2023/12/18 03:06:13;;;;;;;6.70;2.72;;;3.80;99.90;;;3.48;100.00;102771.47;5200922;28;20052;-48
2023/12/18 03:08:47;;;;;;;8.32;2.65;;;3.70;99.90;;;3.45;100.00;102777.25;5217000;28;20041;-47
2023/12/18 03:11:23;;;;;;;7.63;3.45;;;3.70;99.90;;;3.44;100.00;102771.94;5203117;28;20064;-48
2023/12/18 03:13:55;;;;;;;9.05;3.00;;;3.70;99.90;;;3.43;100.00;102780.44;5177744;28;20048;-48
2023/12/18 03:16:27;;;;;;;5.95;3.03;;;3.70;99.90;;;3.40;100.00;102769.84;5198812;28;20053;-48
2023/12/18 03:19:00;;;;;;;8.00;2.88;;;3.70;99.90;;;3.34;100.00;102777.91;5186234;28;20050;-49
2023/12/18 03:21:32;;;;;;;5.90;2.72;;;3.60;99.90;;;3.30;100.00;102778.38;5177378;28;20050;-48
2023/12/18 03:24:06;;;;;;;5.68;2.53;;;3.60;99.90;;;3.24;100.00;102778.69;5218092;28;20420;-48
2023/12/18 03:26:39;;;;;;;6.22;2.65;;;3.50;99.90;;;3.16;100.00;102769.31;5201742;28;20060;-48
2023/12/18 03:29:11;;;;;;;6.45;2.60;;;3.50;99.90;;;3.12;100.00;102769.78;5185290;28;20048;-47
2023/12/18 03:31:44;;;;;;;4.50;2.60;;;3.40;99.90;;;3.10;100.00;102767.81;5182311;28;20543;-47
2023/12/18 03:34:16;;;;;;;6.15;2.75;;;3.40;99.90;;;3.07;100.00;102775.28;5184519;28;20065;-47
2023/12/18 03:36:48;;;;;;;5.80;2.65;;;3.30;99.90;;;3.03;100.00;102766.34;5174939;28;20045;-46
2023/12/18 03:39:22;;;;;;;5.28;2.80;;;3.30;99.90;;;3.04;100.00;102769.81;5199850;28;20049;-48
2023/12/18 03:41:57;;;;;;;4.95;2.65;;;3.30;99.90;;;3.06;100.00;102765.69;5185454;28;20144;-47
2023/12/18 03:44:29;;;;;;;7.90;3.05;;;3.30;99.90;;;3.06;100.00;102768.28;5197436;28;20049;-47
2023/12/18 03:47:02;;;;;;;7.40;2.85;;;3.30;99.90;;;3.03;100.00;102765.44;5185562;28;20072;-48
2023/12/18 03:49:34;;;;;;;5.78;3.03;;;3.30;99.90;;;2.98;100.00;102753.00;5200331;28;20080;-48
2023/12/18 03:52:07;;;;;;;6.70;3.33;;;3.30;99.90;;;2.96;100.00;102754.53;5184840;28;20445;-47
2023/12/18 03:54:44;;;;;;;6.85;2.97;;;3.30;99.90;;;2.96;100.00;102754.53;5184900;28;20052;-47
2023/12/18 03:57:16;;;;;;;5.28;2.60;;;3.20;99.90;;;2.94;100.00;102750.00;5184402;28;20049;-47
2023/12/18 03:59:48;;;;;;;7.32;3.03;;;3.20;99.90;;;2.91;100.00;102739.38;5185139;28;20120;-48
2023/12/18 04:02:21;;;;;;;5.80;2.50;;;3.20;99.90;;;2.89;100.00;102741.81;5184215;28;20057;-48
2023/12/18 04:04:53;;;;;;;3.97;2.70;;;3.20;99.90;;;2.87;100.00;102738.19;5183920;28;20037;-48
2023/12/18 04:07:25;;;;;;;6.63;2.88;;;3.20;99.90;;;2.84;100.00;102727.56;5184509;28;20127;-47
2023/12/18 04:09:59;;;;;;;6.85;2.70;;;3.10;99.90;;;2.81;100.00;102735.03;5197746;28;20398;-48
2023/12/18 04:12:32;;;;;;;5.60;2.70;;;3.10;99.90;;;2.76;100.00;102723.38;5215111;28;20044;-47
2023/12/18 04:15:05;;;;;;;7.20;2.65;;;3.10;99.90;;;2.71;100.00;102728.06;5183867;28;20054;-48
2023/12/18 04:17:38;;;;;;;6.10;2.83;;;3.00;99.90;;;2.66;100.00;102720.66;5185060;28;20050;-47
2023/12/18 04:20:11;;;;;;;6.07;2.53;;;3.00;99.90;;;2.62;100.00;102723.69;5182950;28;20119;-47
2023/12/18 04:22:47;;;;;;;7.15;2.75;;;2.90;99.90;;;2.60;100.00;102720.06;5173960;28;20417;-48
2023/12/18 04:25:20;;;;;;;;;;;2.90;99.90;;;2.54;100.00;102714.31;5191992;28;20050;-48
2023/12/18 04:27:53;;;;;;;7.65;2.60;;;2.90;99.90;;;2.52;100.00;102721.88;5184128;28;19925;-47
2023/12/18 04:30:25;;;;;;;5.43;2.80;;;2.80;99.90;;;2.51;100.00;102716.59;5186100;28;20053;-48
2023/12/18 04:32:58;;;;;;;6.35;3.10;;;2.80;99.90;;;2.47;100.00;102717.94;5210868;28;20045;-49
2023/12/18 04:35:30;;;;;;;7.18;3.47;;;2.80;99.90;;;2.44;100.00;102721.13;5183613;28;20404;-48
2023/12/18 04:38:03;;;;;;;9.48;3.42;;;2.80;99.90;;;2.43;100.00;102718.44;5183526;28;20061;-48
2023/12/18 04:40:36;;;;;;;8.98;3.17;;;2.70;99.90;;;2.41;100.00;102712.19;5200640;28;20041;-48
2023/12/18 04:43:09;;;;;;;7.45;3.25;;;2.70;99.90;;;2.43;100.00;102710.69;5183024;28;20516;-48
2023/12/18 04:45:41;;;;;;;6.35;3.20;;;2.80;99.90;;;2.48;100.00;102703.41;5184011;28;20052;-47
2023/12/18 04:48:14;;;;;;;7.38;3.20;;;2.80;99.90;;;2.51;100.00;102702.06;5184621;28;20064;-47
2023/12/18 04:50:49;;;;;;;7.60;2.85;;;2.80;99.90;;;2.54;100.00;102696.28;5203971;28;20053;-47
2023/12/18 04:53:21;;;;;;;;;;;2.80;99.90;;;2.52;100.00;102701.28;5193127;28;20521;-48
2023/12/18 04:55:55;;;;;;;5.63;2.63;;;2.80;99.90;;;2.49;100.00;102700.09;5183423;28;19931;-48
2023/12/18 04:58:27;;;;;;;6.32;3.10;;;2.80;99.90;;;2.44;100.00;102697.06;5181909;28;20055;-48
2023/12/18 05:01:00;;;;;;;5.88;2.47;;;2.80;99.90;;;2.40;100.00;102705.22;5186899;28;20053;-48
2023/12/18 05:03:32;;;;;;;7.93;2.83;;;2.70;99.90;;;2.37;100.00;102704.94;5180057;28;20068;-48
2023/12/18 05:06:05;;;;;;;7.28;3.40;;;2.70;99.90;;;2.35;100.00;102709.97;5180251;28;20492;-47
2023/12/18 05:08:38;;;;;;;9.00;3.05;;;2.70;99.90;;;2.34;100.00;102704.63;5200463;28;20559;-48
2023/12/18 05:11:11;;;;;;;7.10;3.00;;;2.70;99.90;;;2.30;100.00;102703.44;5181791;28;20128;-47
2023/12/18 05:13:43;;;;;;;8.57;3.38;;;2.60;99.90;;;2.25;100.00;102698.59;5181510;28;20059;-47
2023/12/18 05:16:16;;;;;;;5.85;2.72;;;2.60;99.90;;;2.22;100.00;102713.72;5179600;28;20516;-47
2023/12/18 05:18:49;;;;;;;6.85;2.90;;;2.60;99.90;;;2.19;100.00;102714.34;5186914;28;20057;-47
2023/12/18 05:21:22;;;;;;;7.85;3.17;;;2.50;99.90;;;2.18;100.00;102720.25;5199049;28;20131;-47
2023/12/18 05:23:54;;;;;;;5.57;2.67;;;2.50;99.90;;;2.15;100.00;102712.19;5201136;28;20098;-47
2023/12/18 05:26:28;;;;;;;5.03;3.03;;;2.50;99.90;;;2.13;100.00;102701.78;5184409;28;20413;-48
2023/12/18 05:29:00;;;;;;;9.38;3.33;;;2.50;99.90;;;2.13;100.00;102713.72;5182023;28;20042;-48
2023/12/18 05:31:33;;;;;;;7.20;2.85;;;2.50;99.90;;;2.10;100.00;102711.78;5185118;28;20084;-48
2023/12/18 05:34:06;;;;;;;8.65;3.22;;;2.40;99.90;;;2.07;100.00;102716.59;5184964;28;20049;-47
2023/12/18 05:36:41;;;;;;;9.23;3.00;;;2.40;99.90;;;2.04;100.00;102725.69;5204457;28;20061;-47
2023/12/18 05:39:13;;;;;;;;;;;2.40;99.90;;;2.00;100.00;102726.13;5184253;28;20451;-49
2023/12/18 05:41:47;;;;;;;7.85;3.47;;;2.30;99.90;;;1.99;100.00;102726.91;5187440;28;19921;-47
2023/12/18 05:44:19;;;;;;;8.50;3.42;;;2.30;99.90;;;1.98;100.00;102732.81;5202563;28;20049;-49
2023/12/18 05:46:52;;;;;;;6.95;3.30;;;2.30;99.90;;;1.94;100.00;102743.53;5183480;28;20057;-47
2023/12/18 05:49:24;;;;;;;6.97;3.08;;;2.30;99.90;;;1.91;100.00;102741.56;5200577;28;20050;-47
2023/12/18 05:51:57;;;;;;;8.93;3.20;;;2.30;99.90;;;1.87;100.00;102727.47;5217859;28;20041;-47
2023/12/18 05:54:29;;;;;;;10.95;3.95;;;2.20;99.90;;;1.89;100.00;102738.84;5202019;28;20041;-47
2023/12/18 05:57:03;;;;;;;8.52;3.40;;;2.30;99.90;;;1.93;100.00;102737.47;5188671;28;20049;-47
2023/12/18 05:59:35;;;;;;;5.85;2.97;;;2.30;99.90;;;1.95;100.00;102732.47;5211052;28;20044;-46
2023/12/18 06:02:08;;;;;;;6.25;3.40;;;2.30;99.90;;;1.95;100.00;102733.38;5178447;28;20049;-46
2023/12/18 06:04:43;;;;;;;6.22;2.58;;;2.20;99.90;;;1.93;100.00;102734.91;5184430;28;20042;-47
2023/12/18 06:07:15;;;;;;;;;;;2.30;99.90;;;1.94;100.00;102726.44;5200710;28;20432;-48
2023/12/18 06:09:48;;;;;;;8.90;3.35;;;2.30;99.90;;;1.95;100.00;102729.91;5179156;28;19929;-47
2023/12/18 06:12:21;;;;;;;6.07;2.97;;;2.30;99.90;;;1.98;100.00;102723.41;5218384;28;20054;-47
2023/12/18 06:14:54;;;;;;;7.47;3.40;;;2.30;99.90;;;1.97;100.00;102726.75;5219004;28;20412;-48
2023/12/18 06:17:26;;;;;;;6.00;3.72;;;2.30;99.90;;;1.98;100.00;102723.41;5186090;28;20052;-47
2023/12/18 06:19:59;;;;;;;7.20;3.03;;;2.30;99.90;;;1.96;100.00;102729.19;5204071;28;20049;-48
2023/12/18 06:22:31;;;;;;;8.23;3.33;;;2.30;99.90;;;1.90;100.00;102730.38;5185957;28;20054;-47
2023/12/18 06:25:04;;;;;;;6.78;3.08;;;2.20;99.90;;;1.85;100.00;102726.44;5200270;28;20041;-47
2023/12/18 06:27:38;;;;;;;6.32;2.90;;;2.20;99.90;;;1.81;100.00;102741.38;5203439;28;20099;-47
2023/12/18 06:30:11;;;;;;;6.57;3.17;;;2.10;99.90;;;1.77;100.00;102735.03;5177249;28;20053;-47
2023/12/18 06:32:47;;;;;;;7.05;2.83;;;2.10;99.90;;;1.77;100.00;102737.63;5217169;28;20049;-48
2023/12/18 06:35:19;;;;;;;7.80;2.70;;;2.10;99.90;;;1.76;100.00;102740.94;5175777;28;20055;-48
2023/12/18 06:37:52;;;;;;;8.07;3.25;;;2.10;99.90;;;1.76;100.00;102743.50;5184707;28;20085;-49
2023/12/18 06:40:24;;;;;;;4.43;2.65;;;2.10;99.90;;;1.74;100.00;102747.56;5194050;28;20053;-48
2023/12/18 06:43:01;;;;;;;5.55;2.90;;;2.10;99.90;;;1.76;100.00;102745.16;5196928;28;20122;-49
2023/12/18 06:45:34;;;;;;;7.63;3.03;;;2.10;99.90;;;1.75;100.00;102744.25;5182682;28;20057;-47
2023/12/18 06:48:07;;;;;;;6.03;2.83;;;2.10;99.90;;;1.73;100.00;102750.00;5185130;28;20508;-47
2023/12/18 06:50:39;;;;;;;6.95;2.80;;;2.10;99.90;;;1.70;100.00;102747.13;5189623;28;20053;-47
2023/12/18 06:53:12;;;;;;;7.38;2.85;;;2.00;99.90;;;1.65;100.00;102750.91;5212091;28;20046;-47
2023/12/18 06:55:44;;;;;;;6.40;3.03;;;2.00;99.90;;;1.60;100.00;102747.84;5202332;28;20412;-47
2023/12/18 06:58:18;;;;;;;6.03;2.72;;;2.00;99.90;;;1.60;100.00;102742.72;5201220;28;20415;-48
2023/12/18 07:00:50;;;;;;;7.18;3.65;;;2.00;99.90;;;1.65;100.00;102750.91;5201468;28;20050;-48
2023/12/18 07:03:24;;;;;;;11.13;4.18;;;2.00;99.90;;;1.67;100.00;102750.28;5184662;28;20054;-47
2023/12/18 07:05:56;;;;;;;7.32;3.58;;;2.00;99.90;;;1.67;100.00;102750.28;5191402;28;20045;-47
2023/12/18 07:08:29;;;;;;;8.50;4.03;;;2.00;99.90;;;1.71;100.00;102752.41;5181778;28;20551;-47
2023/12/18 07:11:03;;;;;;;6.93;3.20;;;2.00;99.90;;;1.74;100.00;102746.66;5185142;28;20052;-47
2023/12/18 07:13:36;;;;;;;6.30;3.33;;;2.00;99.90;;;1.77;100.00;102747.91;5200533;28;20570;-47
2023/12/18 07:16:09;;;;;;;6.78;4.28;;;2.10;99.90;;;1.79;100.00;102748.94;5185037;28;20517;-47
2023/12/18 07:18:41;;;;;;;8.63;3.70;;;2.10;99.90;;;1.83;100.00;102758.81;5183369;28;20053;-48
2023/12/18 07:21:14;;;;;;;8.38;3.40;;;2.20;99.90;;;1.82;100.00;102756.97;5184060;28;20066;-46
2023/12/18 07:23:46;;;;;;;7.25;3.13;;;2.10;99.90;;;1.80;100.00;102761.06;5198065;28;20049;-47
2023/12/18 07:26:18;;;;;;;5.20;2.78;;;2.20;99.90;;;1.75;100.00;102767.38;5181245;28;20050;-46
2023/12/18 07:28:52;;;;;;;5.53;2.85;;;2.10;99.90;;;1.70;100.00;102765.13;5202651;28;20064;-46
2023/12/18 07:31:24;;;;;;;7.35;3.10;;;2.10;99.90;;;1.64;100.00;102775.69;5201785;28;20508;-48
2023/12/18 07:33:57;;;;;;;6.57;2.83;;;2.00;99.90;;;1.60;100.00;102765.84;5183403;28;20496;-47
2023/12/18 07:36:29;;;;;;;7.68;3.47;;;2.00;99.90;;;1.56;100.00;102762.03;5200022;28;20045;-48
2023/12/18 07:39:02;;;;;;;9.32;2.90;;;2.00;99.90;;;1.55;100.00;102767.94;5184933;28;20417;-47
2023/12/18 07:41:35;;;;;;;7.72;3.13;;;1.90;99.90;;;1.55;100.00;102769.59;5199733;28;20053;-47
2023/12/18 07:44:09;;;;;;;7.30;3.05;;;1.90;99.90;;;1.54;100.00;102778.06;5181069;28;20060;-46
2023/12/18 07:46:42;;;;;;;8.93;3.15;;;1.90;99.90;;;1.55;100.00;102785.03;5199732;28;20061;-47
2023/12/18 07:49:14;;;;;;;10.73;3.67;;;1.90;99.90;;;1.55;100.00;102790.16;5177233;28;20062;-49
2023/12/18 07:51:47;;;;;;;6.50;3.05;;;1.90;99.90;;;1.55;100.00;102790.16;5198877;28;20424;-48
2023/12/18 07:54:19;;;;;;;7.82;3.00;;;1.90;99.90;;;1.55;100.00;102782.44;5183144;28;20060;-47
2023/12/18 07:56:52;;;;;;;7.18;3.50;;;1.90;99.90;;;1.57;100.00;102783.53;5183411;28;20045;-48
2023/12/18 07:59:25;;;;;;;9.80;3.45;;;1.90;99.90;;;1.59;100.00;102787.16;5201757;28;20420;-47
2023/12/18 08:01:58;;;;;;;6.18;2.90;;;1.90;99.90;;;1.62;100.00;102790.94;5181025;28;20505;-46
2023/12/18 08:04:30;;;;;;;7.60;3.25;;;2.00;99.90;;;1.64;100.00;102793.69;5179703;28;20141;-47
2023/12/18 08:07:06;;;;;;;8.27;3.08;;;2.00;99.90;;;1.63;100.00;102792.78;5179333;28;20069;-48
2023/12/18 08:09:40;;;;;;;;;;;2.00;99.90;;;1.65;100.00;102790.38;5200413;28;20052;-48
2023/12/18 08:12:13;;;;;;;6.60;2.63;;;2.00;99.90;;;1.68;100.00;102800.03;5181981;28;19932;-47
2023/12/18 08:14:46;;;;;;;7.20;3.22;;;2.00;99.90;;;1.68;100.00;102802.59;5192717;28;20042;-48
2023/12/18 08:17:19;;;;;;;10.98;3.55;;;2.00;99.90;;;1.68;100.00;102803.53;5173414;28;20057;-47
2023/12/18 08:19:51;;;;;;;7.13;3.22;;;2.00;99.90;;;1.74;100.00;102800.66;5194579;28;20056;-46
2023/12/18 08:22:23;;;;;;;5.55;3.13;;;2.10;99.90;;;1.77;100.00;102803.56;5182029;28;20069;-46
2023/12/18 08:25:00;;;;;;;7.28;3.55;;;2.10;99.90;;;1.79;100.00;102802.97;5179291;28;20045;-48
2023/12/18 08:27:34;;;;;;;5.18;2.95;;;2.10;99.90;;;1.79;100.00;102802.97;5180802;28;20061;-47
2023/12/18 08:30:10;;;;;;;6.85;2.85;;;2.10;99.90;;;1.82;100.00;102803.25;5183138;28;20045;-47
2023/12/18 08:32:42;;;;;;;6.70;2.90;;;2.20;99.90;;;1.87;100.00;102796.91;5199400;28;20060;-48
2023/12/18 08:35:14;;;;;;;5.80;2.72;;;2.20;99.90;;;1.92;100.00;102799.06;5178327;28;20065;-48
2023/12/18 08:37:48;;;;;;;5.68;2.47;;;2.20;99.90;;;1.99;100.00;102796.34;5182113;28;20049;-48
2023/12/18 08:40:20;;;;;;;6.30;2.88;;;2.30;99.90;;;2.05;100.00;102797.88;5196688;28;20049;-48
2023/12/18 08:43:08;;;;;;;6.22;3.10;;;2.40;99.90;;;2.12;100.00;102782.28;5182048;28;20041;-48
2023/12/18 08:45:42;;;;;;;8.00;3.55;;;2.50;99.90;;;2.15;100.00;102784.25;5183290;28;20045;-47
2023/12/18 08:48:15;;;;;;;6.60;3.13;;;2.50;99.90;;;2.15;100.00;102782.63;5183444;28;20054;-47
2023/12/18 08:50:48;;;;;;;5.28;3.03;;;2.50;99.90;;;2.18;100.00;102777.75;5199465;28;20132;-47
2023/12/18 08:53:20;;;;;;;4.05;2.35;;;2.50;99.90;;;2.28;100.00;102781.25;5178848;28;20052;-47
2023/12/18 08:55:53;;;;;;;5.18;2.22;;;2.60;99.90;;;2.29;100.00;102781.41;5181493;28;20037;-48
2023/12/18 08:58:25;;;;;;;5.63;2.60;;;2.60;99.90;;;2.31;100.00;102781.56;5179317;28;20056;-47
2023/12/18 09:00:59;;;;;;;6.50;2.85;;;2.60;99.90;;;2.32;100.00;102788.53;5199434;28;20504;-48
2023/12/18 09:03:35;;;;;;;5.05;2.78;;;2.70;99.90;;;2.34;100.00;102787.91;5179855;28;20061;-47
2023/12/18 09:06:07;;;;;;;4.43;2.45;;;2.70;99.90;;;2.34;100.00;102790.47;5184795;28;20136;-47
2023/12/18 09:08:40;;;;;;;4.82;2.13;;;2.70;99.90;;;2.34;100.00;102797.28;5199427;28;20443;-48
2023/12/18 09:11:16;;;;;;;5.53;3.03;;;2.70;99.90;;;2.36;100.00;102796.72;5181166;28;20050;-47
2023/12/18 09:13:48;;;;;;;6.15;2.58;;;2.70;99.90;;;2.41;100.00;102797.16;5196103;28;20116;-48
2023/12/18 09:16:22;;;;;;;6.53;3.03;;;2.70;99.90;;;2.42;100.00;102778.41;5178877;28;20049;-49
2023/12/18 09:18:54;;;;;;;5.07;2.45;;;2.70;99.90;;;2.45;100.00;102786.41;5196834;28;20056;-48
2023/12/18 09:21:26;;;;;;;6.40;2.90;;;2.80;99.90;;;2.49;100.00;102780.81;5176615;28;20064;-48
2023/12/18 09:23:59;;;;;;;6.60;2.72;;;2.80;99.90;;;2.53;100.00;102775.19;5127615;28;20065;-47
2023/12/18 09:26:31;;;;;;;5.38;2.88;;;2.80;99.90;;;2.60;100.00;102771.56;5172329;28;20049;-47
2023/12/18 09:29:04;;;;;;;5.75;3.03;;;2.90;99.90;;;2.66;100.00;102772.16;5176931;28;20094;-47
2023/12/18 09:31:37;;;;;;;6.82;2.80;;;2.90;99.90;;;2.71;100.00;102756.38;5179173;28;20073;-48
2023/12/18 09:34:10;;;;;;;11.00;3.78;;;3.00;99.90;;;2.80;100.00;102760.63;5198006;28;20045;-48
2023/12/18 09:36:42;;;;;;;7.43;2.92;;;3.00;99.90;;;2.88;100.00;102760.63;5199019;28;20045;-47
2023/12/18 09:39:15;;;;;;;10.75;3.50;;;3.10;99.90;;;2.97;100.00;102761.50;5181462;28;20049;-47
2023/12/18 09:41:47;;;;;;;10.18;3.47;;;3.20;99.90;;;3.06;100.00;102770.84;5195793;28;20144;-47
2023/12/18 09:44:21;;;;;;;8.80;3.22;;;3.30;99.90;;;3.12;100.00;102768.88;5181816;28;20621;-47
2023/12/18 09:46:54;;;;;;;6.55;3.70;;;3.40;99.90;;;3.15;100.00;102764.94;5180810;28;20057;-47
2023/12/18 09:49:31;;;;;;;9.10;3.83;;;3.40;99.90;;;3.22;100.00;102769.91;5179775;28;20050;-47
2023/12/18 09:52:08;;;;;;;11.55;5.00;;;3.50;99.90;;;3.34;100.00;102762.44;5196462;28;20053;-47
2023/12/18 09:54:42;;;;;;;12.40;4.55;;;3.60;99.90;;;3.49;100.00;102750.09;5175737;28;20073;-49
2023/12/18 09:57:18;;;;;;;9.45;4.88;;;3.70;99.90;;;3.64;100.00;102745.44;5176935;28;20119;-47
2023/12/18 09:59:51;;;;;;;10.60;4.28;;;3.80;99.90;;;3.78;100.00;102750.22;5198476;28;20065;-48
2023/12/18 10:02:26;;;;;;;10.25;4.55;;;4.00;99.90;;;3.94;100.00;102737.06;5176224;28;20428;-47
2023/12/18 10:04:58;;;;;;;13.73;5.30;;;4.10;99.90;;;4.11;100.00;102741.19;5196493;28;20508;-49
2023/12/18 10:07:30;;;;;;;10.40;4.95;;;4.30;99.90;;;4.31;100.00;102736.19;5178171;28;20053;-48
2023/12/18 10:10:03;;;;;;;13.77;4.80;;;4.40;99.90;;;4.51;100.00;102732.81;5196932;28;20523;-48
2023/12/18 10:12:38;;;;;;;12.18;5.15;;;4.60;99.90;;;4.70;100.00;102732.78;5211532;28;20049;-47
2023/12/18 10:15:14;;;;;;;8.10;4.88;;;4.80;99.90;;;4.88;100.00;102727.56;5198040;28;20128;-47
2023/12/18 10:17:48;;;;;;;9.43;4.22;;;5.00;99.90;;;5.05;100.00;102728.16;5200297;28;20051;-48
2023/12/18 10:20:20;;;;;;;11.13;4.13;;;5.10;99.90;;;5.20;100.00;102726.88;5183787;28;20054;-48
2023/12/18 10:22:53;;;;;;;12.25;4.45;;;5.30;99.90;;;5.38;100.00;102736.25;5198909;28;20128;-48
2023/12/18 10:25:28;;;;;;;12.35;5.13;;;5.40;99.90;;;5.56;100.00;102731.75;5187797;28;20056;-47
2023/12/18 10:28:01;;;;;;;9.85;4.63;;;5.60;99.90;;;5.71;100.00;102722.69;5183688;28;20041;-47
2023/12/18 10:30:34;;;;;;;8.60;4.07;;;5.80;99.90;;;5.85;100.00;102716.09;5186223;28;20266;-47
2023/12/18 10:33:09;;;;;;;10.70;4.57;;;5.90;99.90;;;6.03;100.00;102716.78;5198314;28;20118;-46
2023/12/18 10:35:42;;;;;;;11.00;4.40;;;6.00;99.90;;;6.36;100.00;102708.28;5202795;28;20272;-47
2023/12/18 10:38:20;;;;;;;13.77;4.72;;;6.30;99.90;;;6.48;100.00;102703.22;5185477;28;20068;-48
2023/12/18 10:40:56;;;;;;;12.23;4.50;;;6.50;99.90;;;6.56;100.00;102702.16;5199048;28;20054;-48
2023/12/18 10:43:32;;;;;;;9.40;4.50;;;6.60;99.90;;;6.63;100.00;102694.09;5200222;28;20046;-48
2023/12/18 10:46:06;;;;;;;10.93;5.20;;;6.70;99.90;;;6.67;100.00;102700.44;5182308;28;20056;-49